sensor_id;sensor_type;location;lat;lon;timestamp;temperature;humidity
15717;DHT22;7960;50.908;4.204;2023-02-08T00:00:10;1.60;99.90
15717;DHT22;7960;50.908;4.204;2023-02-08T00:02:37;1.70;99.90
15717;DHT22;7960;50.908;4.204;2023-02-08T00:05:04;1.80;99.90
15717;DHT22;7960;50.908;4.204;2023-02-08T00:07:31;1.90;99.90
15717;DHT22;7960;50.908;4.204;2023-02-08T00:09:59;1.90;99.90
15717;DHT22;7960;50.908;4.204;2023-02-08T00:12:29;1.80;99.90
15717;DHT22;7960;50.908;4.204;2023-02-08T00:14:56;1.70;99.90
15717;DHT22;7960;50.908;4.204;2023-02-08T00:17:23;1.70;99.90
15717;DHT22;7960;50.908;4.204;2023-02-08T00:19:49;1.80;99.90
15717;DHT22;7960;50.908;4.204;2023-02-08T00:22:16;1.70;99.90
15717;DHT22;7960;50.908;4.204;2023-02-08T00:24:43;1.60;99.90
15717;DHT22;7960;50.908;4.204;2023-02-08T00:27:11;1.50;99.90
15717;DHT22;7960;50.908;4.204;2023-02-08T00:29:38;1.50;99.90
15717;DHT22;7960;50.908;4.204;2023-02-08T00:32:05;1.40;99.90
15717;DHT22;7960;50.908;4.204;2023-02-08T00:34:31;1.30;99.90
15717;DHT22;7960;50.908;4.204;2023-02-08T00:36:59;1.40;99.90
15717;DHT22;7960;50.908;4.204;2023-02-08T00:39:26;1.40;99.90
15717;DHT22;7960;50.908;4.204;2023-02-08T00:41:53;1.40;99.90
15717;DHT22;7960;50.908;4.204;2023-02-08T00:44:21;1.30;99.90
15717;DHT22;7960;50.908;4.204;2023-02-08T00:46:48;1.30;99.90
15717;DHT22;7960;50.908;4.204;2023-02-08T00:49:15;1.30;99.90
15717;DHT22;7960;50.908;4.204;2023-02-08T00:51:41;1.20;99.90
15717;DHT22;7960;50.908;4.204;2023-02-08T00:54:12;1.20;99.90
15717;DHT22;7960;50.908;4.204;2023-02-08T00:56:39;1.20;99.90
15717;DHT22;7960;50.908;4.204;2023-02-08T00:59:06;1.10;99.90
15717;DHT22;7960;50.908;4.204;2023-02-08T01:01:34;1.10;99.90
15717;DHT22;7960;50.908;4.204;2023-02-08T01:04:01;1.00;99.90
15717;DHT22;7960;50.908;4.204;2023-02-08T01:06:28;1.00;99.90
15717;DHT22;7960;50.908;4.204;2023-02-08T01:08:55;1.10;99.90
15717;DHT22;7960;50.908;4.204;2023-02-08T01:11:23;1.00;99.90
15717;DHT22;7960;50.908;4.204;2023-02-08T01:13:52;0.90;99.90
15717;DHT22;7960;50.908;4.204;2023-02-08T01:16:22;0.80;99.90
15717;DHT22;7960;50.908;4.204;2023-02-08T01:18:51;0.90;99.90
15717;DHT22;7960;50.908;4.204;2023-02-08T01:21:20;0.90;99.90
15717;DHT22;7960;50.908;4.204;2023-02-08T01:23:48;0.80;99.90
15717;DHT22;7960;50.908;4.204;2023-02-08T01:26:16;0.90;99.90
15717;DHT22;7960;50.908;4.204;2023-02-08T01:28:43;1.00;99.90
15717;DHT22;7960;50.908;4.204;2023-02-08T01:31:13;1.00;99.90
15717;DHT22;7960;50.908;4.204;2023-02-08T01:33:40;1.10;99.90
15717;DHT22;7960;50.908;4.204;2023-02-08T01:36:09;1.00;99.90
15717;DHT22;7960;50.908;4.204;2023-02-08T01:38:37;0.90;99.90
15717;DHT22;7960;50.908;4.204;2023-02-08T01:41:05;1.00;99.90
15717;DHT22;7960;50.908;4.204;2023-02-08T01:43:56;0.90;99.90
15717;DHT22;7960;50.908;4.204;2023-02-08T01:46:22;0.70;99.90
15717;DHT22;7960;50.908;4.204;2023-02-08T01:48:49;0.70;99.90
15717;DHT22;7960;50.908;4.204;2023-02-08T01:51:19;0.60;99.90
15717;DHT22;7960;50.908;4.204;2023-02-08T01:53:47;0.50;99.90
15717;DHT22;7960;50.908;4.204;2023-02-08T01:56:19;0.30;99.90
15717;DHT22;7960;50.908;4.204;2023-02-08T01:58:49;0.40;99.90
15717;DHT22;7960;50.908;4.204;2023-02-08T02:01:17;0.30;99.90
15717;DHT22;7960;50.908;4.204;2023-02-08T02:03:45;0.40;99.90
15717;DHT22;7960;50.908;4.204;2023-02-08T02:06:21;0.40;99.90
15717;DHT22;7960;50.908;4.204;2023-02-08T02:08:55;0.40;99.90
15717;DHT22;7960;50.908;4.204;2023-02-08T02:11:23;0.50;99.90
15717;DHT22;7960;50.908;4.204;2023-02-08T02:13:50;0.50;99.90
15717;DHT22;7960;50.908;4.204;2023-02-08T02:16:18;0.30;99.90
15717;DHT22;7960;50.908;4.204;2023-02-08T02:18:46;0.40;99.90
15717;DHT22;7960;50.908;4.204;2023-02-08T02:21:31;0.50;99.90
15717;DHT22;7960;50.908;4.204;2023-02-08T02:27:24;0.50;99.90
15717;DHT22;7960;50.908;4.204;2023-02-08T02:33:36;0.60;99.90
15717;DHT22;7960;50.908;4.204;2023-02-08T02:36:14;0.60;99.90
15717;DHT22;7960;50.908;4.204;2023-02-08T02:38:50;0.60;99.90
15717;DHT22;7960;50.908;4.204;2023-02-08T02:41:32;0.50;99.90
15717;DHT22;7960;50.908;4.204;2023-02-08T02:44:23;0.30;99.90
15717;DHT22;7960;50.908;4.204;2023-02-08T02:46:58;0.20;99.90
15717;DHT22;7960;50.908;4.204;2023-02-08T02:49:31;0.20;99.90
15717;DHT22;7960;50.908;4.204;2023-02-08T02:52:05;0.30;99.90
15717;DHT22;7960;50.908;4.204;2023-02-08T02:54:38;0.30;99.90
15717;DHT22;7960;50.908;4.204;2023-02-08T02:57:09;0.40;99.90
15717;DHT22;7960;50.908;4.204;2023-02-08T02:59:38;0.50;99.90
15717;DHT22;7960;50.908;4.204;2023-02-08T03:02:05;0.60;99.90
15717;DHT22;7960;50.908;4.204;2023-02-08T03:04:51;0.70;99.90
15717;DHT22;7960;50.908;4.204;2023-02-08T03:10:24;0.60;99.90
15717;DHT22;7960;50.908;4.204;2023-02-08T03:12:58;0.70;99.90
15717;DHT22;7960;50.908;4.204;2023-02-08T03:15:31;0.60;99.90
15717;DHT22;7960;50.908;4.204;2023-02-08T03:18:04;0.50;99.90
15717;DHT22;7960;50.908;4.204;2023-02-08T03:20:41;0.60;99.90
15717;DHT22;7960;50.908;4.204;2023-02-08T03:23:16;0.60;99.90
15717;DHT22;7960;50.908;4.204;2023-02-08T03:25:49;0.60;99.90
15717;DHT22;7960;50.908;4.204;2023-02-08T03:28:21;0.50;99.90
15717;DHT22;7960;50.908;4.204;2023-02-08T03:30:55;0.50;99.90
15717;DHT22;7960;50.908;4.204;2023-02-08T03:33:27;0.50;99.90
15717;DHT22;7960;50.908;4.204;2023-02-08T03:36:02;0.30;99.90
15717;DHT22;7960;50.908;4.204;2023-02-08T03:38:34;0.20;99.90
15717;DHT22;7960;50.908;4.204;2023-02-08T03:41:04;0.30;99.90
15717;DHT22;7960;50.908;4.204;2023-02-08T03:43:34;0.10;99.90
15717;DHT22;7960;50.908;4.204;2023-02-08T03:46:06;0.10;99.90
15717;DHT22;7960;50.908;4.204;2023-02-08T03:48:37;0.10;99.90
15717;DHT22;7960;50.908;4.204;2023-02-08T03:51:07;0.10;99.90
15717;DHT22;7960;50.908;4.204;2023-02-08T03:53:36;0.10;99.90
15717;DHT22;7960;50.908;4.204;2023-02-08T03:56:09;0.30;99.90
15717;DHT22;7960;50.908;4.204;2023-02-08T03:58:40;0.30;99.90
15717;DHT22;7960;50.908;4.204;2023-02-08T04:01:14;0.20;99.90
15717;DHT22;7960;50.908;4.204;2023-02-08T04:03:44;0.20;99.90
15717;DHT22;7960;50.908;4.204;2023-02-08T04:06:14;0.40;99.90
15717;DHT22;7960;50.908;4.204;2023-02-08T04:08:41;0.60;99.90
15717;DHT22;7960;50.908;4.204;2023-02-08T04:11:08;0.70;99.90
15717;DHT22;7960;50.908;4.204;2023-02-08T04:13:35;0.60;99.90
15717;DHT22;7960;50.908;4.204;2023-02-08T04:16:02;0.40;99.90
15717;DHT22;7960;50.908;4.204;2023-02-08T04:18:29;0.40;99.90
15717;DHT22;7960;50.908;4.204;2023-02-08T04:20:56;0.60;99.90
15717;DHT22;7960;50.908;4.204;2023-02-08T04:23:24;0.60;99.90
15717;DHT22;7960;50.908;4.204;2023-02-08T04:25:51;0.70;99.90
15717;DHT22;7960;50.908;4.204;2023-02-08T04:28:18;0.60;99.90
15717;DHT22;7960;50.908;4.204;2023-02-08T04:30:44;0.40;99.90
15717;DHT22;7960;50.908;4.204;2023-02-08T04:33:11;0.50;99.90
15717;DHT22;7960;50.908;4.204;2023-02-08T04:35:39;0.50;99.90
15717;DHT22;7960;50.908;4.204;2023-02-08T04:38:06;0.50;99.90
15717;DHT22;7960;50.908;4.204;2023-02-08T04:40:34;0.50;99.90
15717;DHT22;7960;50.908;4.204;2023-02-08T04:43:01;0.60;99.90
15717;DHT22;7960;50.908;4.204;2023-02-08T04:45:28;0.50;99.90
15717;DHT22;7960;50.908;4.204;2023-02-08T04:47:56;0.60;99.90
15717;DHT22;7960;50.908;4.204;2023-02-08T04:50:23;0.70;99.90
15717;DHT22;7960;50.908;4.204;2023-02-08T04:52:50;0.70;99.90
15717;DHT22;7960;50.908;4.204;2023-02-08T04:55:17;0.70;99.90
15717;DHT22;7960;50.908;4.204;2023-02-08T04:57:45;0.60;99.90
15717;DHT22;7960;50.908;4.204;2023-02-08T05:00:13;0.60;99.90
15717;DHT22;7960;50.908;4.204;2023-02-08T05:02:39;0.70;99.90
15717;DHT22;7960;50.908;4.204;2023-02-08T05:05:07;0.80;99.90
15717;DHT22;7960;50.908;4.204;2023-02-08T05:07:34;0.70;99.90
15717;DHT22;7960;50.908;4.204;2023-02-08T05:10:01;0.60;99.90
15717;DHT22;7960;50.908;4.204;2023-02-08T05:12:28;0.60;99.90
15717;DHT22;7960;50.908;4.204;2023-02-08T05:14:56;0.60;99.90
15717;DHT22;7960;50.908;4.204;2023-02-08T05:17:22;0.60;99.90
15717;DHT22;7960;50.908;4.204;2023-02-08T05:19:49;0.60;99.90
15717;DHT22;7960;50.908;4.204;2023-02-08T05:22:16;0.70;99.90
15717;DHT22;7960;50.908;4.204;2023-02-08T05:24:43;0.70;99.90
15717;DHT22;7960;50.908;4.204;2023-02-08T05:27:10;0.80;99.90
15717;DHT22;7960;50.908;4.204;2023-02-08T05:29:36;0.70;99.90
15717;DHT22;7960;50.908;4.204;2023-02-08T05:32:05;0.60;99.90
15717;DHT22;7960;50.908;4.204;2023-02-08T05:34:31;0.60;99.90
15717;DHT22;7960;50.908;4.204;2023-02-08T05:36:58;0.50;99.90
15717;DHT22;7960;50.908;4.204;2023-02-08T05:39:25;0.40;99.90
15717;DHT22;7960;50.908;4.204;2023-02-08T05:41:52;0.60;99.90
15717;DHT22;7960;50.908;4.204;2023-02-08T05:44:19;0.50;99.90
15717;DHT22;7960;50.908;4.204;2023-02-08T05:46:46;0.40;99.90
15717;DHT22;7960;50.908;4.204;2023-02-08T05:49:14;0.50;99.90
15717;DHT22;7960;50.908;4.204;2023-02-08T05:51:40;0.60;99.90
15717;DHT22;7960;50.908;4.204;2023-02-08T05:54:07;0.60;99.90
15717;DHT22;7960;50.908;4.204;2023-02-08T05:56:35;0.60;99.90
15717;DHT22;7960;50.908;4.204;2023-02-08T05:59:02;0.70;99.90
15717;DHT22;7960;50.908;4.204;2023-02-08T06:01:29;0.60;99.90
15717;DHT22;7960;50.908;4.204;2023-02-08T06:03:57;0.50;99.90
15717;DHT22;7960;50.908;4.204;2023-02-08T06:06:25;0.50;99.90
15717;DHT22;7960;50.908;4.204;2023-02-08T06:08:52;0.40;99.90
15717;DHT22;7960;50.908;4.204;2023-02-08T06:11:19;0.30;99.90
15717;DHT22;7960;50.908;4.204;2023-02-08T06:13:46;0.50;99.90
15717;DHT22;7960;50.908;4.204;2023-02-08T06:16:13;0.40;99.90
15717;DHT22;7960;50.908;4.204;2023-02-08T06:18:40;0.60;99.90
15717;DHT22;7960;50.908;4.204;2023-02-08T06:21:07;0.60;99.90
15717;DHT22;7960;50.908;4.204;2023-02-08T06:23:35;0.50;99.90
15717;DHT22;7960;50.908;4.204;2023-02-08T06:26:02;0.50;99.90
15717;DHT22;7960;50.908;4.204;2023-02-08T06:28:29;0.40;99.90
15717;DHT22;7960;50.908;4.204;2023-02-08T06:30:55;0.50;99.90
15717;DHT22;7960;50.908;4.204;2023-02-08T06:33:22;0.40;99.90
15717;DHT22;7960;50.908;4.204;2023-02-08T06:35:51;0.60;99.90
15717;DHT22;7960;50.908;4.204;2023-02-08T06:38:18;0.40;99.90
15717;DHT22;7960;50.908;4.204;2023-02-08T06:40:47;0.50;99.90
15717;DHT22;7960;50.908;4.204;2023-02-08T06:43:14;0.60;99.90
15717;DHT22;7960;50.908;4.204;2023-02-08T06:45:43;0.70;99.90
15717;DHT22;7960;50.908;4.204;2023-02-08T06:48:10;0.70;99.90
15717;DHT22;7960;50.908;4.204;2023-02-08T06:50:37;0.80;99.90
15717;DHT22;7960;50.908;4.204;2023-02-08T06:53:04;0.60;99.90
15717;DHT22;7960;50.908;4.204;2023-02-08T06:55:30;0.40;99.90
15717;DHT22;7960;50.908;4.204;2023-02-08T06:57:58;0.40;99.90
15717;DHT22;7960;50.908;4.204;2023-02-08T07:00:25;0.50;99.90
15717;DHT22;7960;50.908;4.204;2023-02-08T07:02:52;0.50;99.90
15717;DHT22;7960;50.908;4.204;2023-02-08T07:05:19;0.40;99.90
15717;DHT22;7960;50.908;4.204;2023-02-08T07:07:46;0.40;99.90
15717;DHT22;7960;50.908;4.204;2023-02-08T07:10:13;0.50;99.90
15717;DHT22;7960;50.908;4.204;2023-02-08T07:12:40;0.60;99.90
15717;DHT22;7960;50.908;4.204;2023-02-08T07:15:09;0.70;99.90
15717;DHT22;7960;50.908;4.204;2023-02-08T07:17:37;0.70;99.90
15717;DHT22;7960;50.908;4.204;2023-02-08T07:20:05;0.70;99.90
15717;DHT22;7960;50.908;4.204;2023-02-08T07:22:32;0.70;99.90
15717;DHT22;7960;50.908;4.204;2023-02-08T07:24:59;0.70;99.90
15717;DHT22;7960;50.908;4.204;2023-02-08T07:27:25;0.80;99.90
15717;DHT22;7960;50.908;4.204;2023-02-08T07:29:52;0.80;99.90
15717;DHT22;7960;50.908;4.204;2023-02-08T07:32:20;0.90;99.90
15717;DHT22;7960;50.908;4.204;2023-02-08T07:34:47;0.90;99.90
15717;DHT22;7960;50.908;4.204;2023-02-08T07:37:14;1.00;99.90
15717;DHT22;7960;50.908;4.204;2023-02-08T07:39:41;1.20;99.90
15717;DHT22;7960;50.908;4.204;2023-02-08T07:42:08;1.30;99.90
15717;DHT22;7960;50.908;4.204;2023-02-08T07:44:36;1.20;99.90
15717;DHT22;7960;50.908;4.204;2023-02-08T07:47:03;1.30;99.90
15717;DHT22;7960;50.908;4.204;2023-02-08T07:49:31;1.30;99.90
15717;DHT22;7960;50.908;4.204;2023-02-08T07:51:58;1.30;99.90
15717;DHT22;7960;50.908;4.204;2023-02-08T07:54:25;1.30;99.90
15717;DHT22;7960;50.908;4.204;2023-02-08T07:56:52;1.20;99.90
15717;DHT22;7960;50.908;4.204;2023-02-08T07:59:19;1.20;99.90
15717;DHT22;7960;50.908;4.204;2023-02-08T08:01:46;1.20;99.90
15717;DHT22;7960;50.908;4.204;2023-02-08T08:04:13;1.20;99.90
15717;DHT22;7960;50.908;4.204;2023-02-08T08:06:41;1.30;99.90
15717;DHT22;7960;50.908;4.204;2023-02-08T08:09:08;1.30;99.90
15717;DHT22;7960;50.908;4.204;2023-02-08T08:11:35;1.30;99.90
15717;DHT22;7960;50.908;4.204;2023-02-08T08:14:01;1.30;99.90
15717;DHT22;7960;50.908;4.204;2023-02-08T08:16:28;1.30;99.90
15717;DHT22;7960;50.908;4.204;2023-02-08T08:18:55;1.30;99.90
15717;DHT22;7960;50.908;4.204;2023-02-08T08:21:22;1.40;99.90
15717;DHT22;7960;50.908;4.204;2023-02-08T08:23:50;1.40;99.90
15717;DHT22;7960;50.908;4.204;2023-02-08T08:26:19;1.40;99.90
15717;DHT22;7960;50.908;4.204;2023-02-08T08:28:46;1.60;99.90
15717;DHT22;7960;50.908;4.204;2023-02-08T08:31:14;1.50;99.90
15717;DHT22;7960;50.908;4.204;2023-02-08T08:33:42;1.60;99.90
15717;DHT22;7960;50.908;4.204;2023-02-08T08:36:08;1.80;99.90
15717;DHT22;7960;50.908;4.204;2023-02-08T08:38:35;1.80;99.90
15717;DHT22;7960;50.908;4.204;2023-02-08T08:41:08;1.80;99.90
15717;DHT22;7960;50.908;4.204;2023-02-08T08:43:35;1.90;99.90
15717;DHT22;7960;50.908;4.204;2023-02-08T08:46:01;2.00;99.90
15717;DHT22;7960;50.908;4.204;2023-02-08T08:48:30;2.10;99.90
15717;DHT22;7960;50.908;4.204;2023-02-08T08:50:57;2.10;99.90
15717;DHT22;7960;50.908;4.204;2023-02-08T08:53:23;2.20;99.90
15717;DHT22;7960;50.908;4.204;2023-02-08T08:55:50;2.40;99.90
15717;DHT22;7960;50.908;4.204;2023-02-08T08:58:18;2.50;99.90
15717;DHT22;7960;50.908;4.204;2023-02-08T09:00:45;2.50;99.90
15717;DHT22;7960;50.908;4.204;2023-02-08T09:03:12;2.60;99.90
15717;DHT22;7960;50.908;4.204;2023-02-08T09:05:39;2.80;99.90
15717;DHT22;7960;50.908;4.204;2023-02-08T09:08:06;2.80;99.90
15717;DHT22;7960;50.908;4.204;2023-02-08T09:10:32;3.00;99.90
15717;DHT22;7960;50.908;4.204;2023-02-08T09:12:59;3.00;99.90
15717;DHT22;7960;50.908;4.204;2023-02-08T09:15:28;3.20;99.90
15717;DHT22;7960;50.908;4.204;2023-02-08T09:17:54;3.40;99.90
15717;DHT22;7960;50.908;4.204;2023-02-08T09:20:21;3.50;99.90
15717;DHT22;7960;50.908;4.204;2023-02-08T09:22:48;3.50;99.90
15717;DHT22;7960;50.908;4.204;2023-02-08T09:25:15;3.70;99.90
15717;DHT22;7960;50.908;4.204;2023-02-08T09:27:42;3.90;99.90
15717;DHT22;7960;50.908;4.204;2023-02-08T09:30:09;3.90;99.90
15717;DHT22;7960;50.908;4.204;2023-02-08T09:32:38;4.00;99.90
15717;DHT22;7960;50.908;4.204;2023-02-08T09:35:05;4.00;99.50
15717;DHT22;7960;50.908;4.204;2023-02-08T09:37:32;4.00;99.20
15717;DHT22;7960;50.908;4.204;2023-02-08T09:39:59;4.10;99.20
15717;DHT22;7960;50.908;4.204;2023-02-08T09:42:31;4.30;98.80
15717;DHT22;7960;50.908;4.204;2023-02-08T09:48:02;4.40;98.30
15717;DHT22;7960;50.908;4.204;2023-02-08T09:50:33;4.60;98.40
15717;DHT22;7960;50.908;4.204;2023-02-08T09:53:07;4.80;97.90
15717;DHT22;7960;50.908;4.204;2023-02-08T09:55:40;4.90;97.00
15717;DHT22;7960;50.908;4.204;2023-02-08T09:58:18;5.10;96.90
15717;DHT22;7960;50.908;4.204;2023-02-08T10:00:46;5.40;96.00
15717;DHT22;7960;50.908;4.204;2023-02-08T10:03:26;5.70;95.40
15717;DHT22;7960;50.908;4.204;2023-02-08T10:05:54;5.80;94.60
15717;DHT22;7960;50.908;4.204;2023-02-08T10:08:21;5.80;93.90
15717;DHT22;7960;50.908;4.204;2023-02-08T10:10:53;5.90;93.30
15717;DHT22;7960;50.908;4.204;2023-02-08T10:13:41;6.00;92.70
15717;DHT22;7960;50.908;4.204;2023-02-08T10:16:17;6.20;91.60
15717;DHT22;7960;50.908;4.204;2023-02-08T10:18:51;6.60;90.50
15717;DHT22;7960;50.908;4.204;2023-02-08T10:21:33;6.30;88.30
15717;DHT22;7960;50.908;4.204;2023-02-08T10:24:18;6.40;87.00
15717;DHT22;7960;50.908;4.204;2023-02-08T10:26:58;6.40;84.70
15717;DHT22;7960;50.908;4.204;2023-02-08T10:29:50;6.60;84.40
15717;DHT22;7960;50.908;4.204;2023-02-08T10:32:29;6.80;83.10
15717;DHT22;7960;50.908;4.204;2023-02-08T10:35:03;6.90;81.30
15717;DHT22;7960;50.908;4.204;2023-02-08T10:37:33;7.10;80.60
15717;DHT22;7960;50.908;4.204;2023-02-08T10:40:13;7.30;80.10
15717;DHT22;7960;50.908;4.204;2023-02-08T10:42:45;7.40;77.40
15717;DHT22;7960;50.908;4.204;2023-02-08T10:45:21;7.40;73.90
15717;DHT22;7960;50.908;4.204;2023-02-08T10:47:52;7.50;69.70
15717;DHT22;7960;50.908;4.204;2023-02-08T10:50:24;7.80;68.80
15717;DHT22;7960;50.908;4.204;2023-02-08T10:52:54;7.80;64.50
15717;DHT22;7960;50.908;4.204;2023-02-08T10:55:21;8.00;62.30
15717;DHT22;7960;50.908;4.204;2023-02-08T10:57:50;8.20;60.90
15717;DHT22;7960;50.908;4.204;2023-02-08T11:00:21;8.20;61.20
15717;DHT22;7960;50.908;4.204;2023-02-08T11:02:50;8.30;60.40
15717;DHT22;7960;50.908;4.204;2023-02-08T11:05:19;8.20;56.90
15717;DHT22;7960;50.908;4.204;2023-02-08T11:08:04;8.40;56.60
15717;DHT22;7960;50.908;4.204;2023-02-08T11:10:31;8.40;52.20
15717;DHT22;7960;50.908;4.204;2023-02-08T11:12:59;8.60;51.00
15717;DHT22;7960;50.908;4.204;2023-02-08T11:15:37;8.70;51.10
15717;DHT22;7960;50.908;4.204;2023-02-08T11:18:05;8.80;50.50
15717;DHT22;7960;50.908;4.204;2023-02-08T11:20:35;9.00;50.50
15717;DHT22;7960;50.908;4.204;2023-02-08T11:23:04;9.20;49.80
15717;DHT22;7960;50.908;4.204;2023-02-08T11:25:36;9.30;47.80
15717;DHT22;7960;50.908;4.204;2023-02-08T11:28:04;9.50;47.10
15717;DHT22;7960;50.908;4.204;2023-02-08T11:30:31;9.20;43.30
15717;DHT22;7960;50.908;4.204;2023-02-08T11:33:17;9.10;41.70
15717;DHT22;7960;50.908;4.204;2023-02-08T11:35:53;9.20;41.80
15717;DHT22;7960;50.908;4.204;2023-02-08T11:38:22;9.40;41.00
15717;DHT22;7960;50.908;4.204;2023-02-08T11:40:53;9.70;40.70
15717;DHT22;7960;50.908;4.204;2023-02-08T11:43:24;9.50;40.10
15717;DHT22;7960;50.908;4.204;2023-02-08T11:45:53;9.40;40.00
15717;DHT22;7960;50.908;4.204;2023-02-08T11:48:23;9.50;40.40
15717;DHT22;7960;50.908;4.204;2023-02-08T11:50:56;9.60;40.90
15717;DHT22;7960;50.908;4.204;2023-02-08T11:53:27;10.00;42.00
15717;DHT22;7960;50.908;4.204;2023-02-08T11:56:05;9.90;41.50
15717;DHT22;7960;50.908;4.204;2023-02-08T11:58:33;9.70;40.70
15717;DHT22;7960;50.908;4.204;2023-02-08T12:01:02;10.10;41.20
15717;DHT22;7960;50.908;4.204;2023-02-08T12:03:31;10.30;40.70
15717;DHT22;7960;50.908;4.204;2023-02-08T12:06:15;10.10;40.10
15717;DHT22;7960;50.908;4.204;2023-02-08T12:08:55;10.10;39.90
15717;DHT22;7960;50.908;4.204;2023-02-08T12:11:28;10.20;39.50
15717;DHT22;7960;50.908;4.204;2023-02-08T12:14:30;10.60;39.70
15717;DHT22;7960;50.908;4.204;2023-02-08T12:17:18;10.70;38.60
15717;DHT22;7960;50.908;4.204;2023-02-08T12:20:01;10.90;38.40
15717;DHT22;7960;50.908;4.204;2023-02-08T12:22:30;10.60;37.90
15717;DHT22;7960;50.908;4.204;2023-02-08T12:25:13;10.40;36.90
15717;DHT22;7960;50.908;4.204;2023-02-08T12:27:48;10.20;36.20
15717;DHT22;7960;50.908;4.204;2023-02-08T12:30:24;10.30;36.70
15717;DHT22;7960;50.908;4.204;2023-02-08T12:33:08;10.10;36.20
15717;DHT22;7960;50.908;4.204;2023-02-08T12:35:55;10.20;36.30
15717;DHT22;7960;50.908;4.204;2023-02-08T12:41:43;10.50;35.90
15717;DHT22;7960;50.908;4.204;2023-02-08T12:44:22;10.50;35.80
15717;DHT22;7960;50.908;4.204;2023-02-08T12:47:01;10.30;35.70
15717;DHT22;7960;50.908;4.204;2023-02-08T12:49:47;10.00;35.40
15717;DHT22;7960;50.908;4.204;2023-02-08T12:52:25;10.10;35.70
15717;DHT22;7960;50.908;4.204;2023-02-08T12:54:59;10.60;36.40
15717;DHT22;7960;50.908;4.204;2023-02-08T12:57:29;11.20;36.70
15717;DHT22;7960;50.908;4.204;2023-02-08T12:59:59;11.10;36.60
15717;DHT22;7960;50.908;4.204;2023-02-08T13:02:31;10.90;35.70
15717;DHT22;7960;50.908;4.204;2023-02-08T13:05:02;10.70;35.30
15717;DHT22;7960;50.908;4.204;2023-02-08T13:07:32;10.40;35.20
15717;DHT22;7960;50.908;4.204;2023-02-08T13:10:05;10.10;35.10
15717;DHT22;7960;50.908;4.204;2023-02-08T13:12:39;10.00;35.50
15717;DHT22;7960;50.908;4.204;2023-02-08T13:15:14;9.90;36.40
15717;DHT22;7960;50.908;4.204;2023-02-08T13:17:50;9.90;36.50
15717;DHT22;7960;50.908;4.204;2023-02-08T13:20:28;10.00;36.40
15717;DHT22;7960;50.908;4.204;2023-02-08T13:22:59;9.90;37.30
15717;DHT22;7960;50.908;4.204;2023-02-08T13:25:29;10.20;37.00
15717;DHT22;7960;50.908;4.204;2023-02-08T13:28:01;10.10;37.10
15717;DHT22;7960;50.908;4.204;2023-02-08T13:30:28;10.20;36.40
15717;DHT22;7960;50.908;4.204;2023-02-08T13:32:55;10.20;36.70
15717;DHT22;7960;50.908;4.204;2023-02-08T13:35:25;10.40;36.10
15717;DHT22;7960;50.908;4.204;2023-02-08T13:37:57;10.20;36.00
15717;DHT22;7960;50.908;4.204;2023-02-08T13:40:27;10.20;36.00
15717;DHT22;7960;50.908;4.204;2023-02-08T13:43:00;9.70;37.00
15717;DHT22;7960;50.908;4.204;2023-02-08T13:45:29;9.70;38.00
15717;DHT22;7960;50.908;4.204;2023-02-08T13:48:01;9.40;38.10
15717;DHT22;7960;50.908;4.204;2023-02-08T13:50:46;9.20;38.00
15717;DHT22;7960;50.908;4.204;2023-02-08T13:53:16;9.10;37.90
15717;DHT22;7960;50.908;4.204;2023-02-08T13:55:58;9.00;37.50
15717;DHT22;7960;50.908;4.204;2023-02-08T14:01:33;9.00;39.20
15717;DHT22;7960;50.908;4.204;2023-02-08T14:04:29;9.00;40.50
15717;DHT22;7960;50.908;4.204;2023-02-08T14:07:12;8.90;41.10
15717;DHT22;7960;50.908;4.204;2023-02-08T14:09:52;8.90;41.10
15717;DHT22;7960;50.908;4.204;2023-02-08T14:12:26;8.90;42.20
15717;DHT22;7960;50.908;4.204;2023-02-08T14:15:26;8.90;43.30
15717;DHT22;7960;50.908;4.204;2023-02-08T14:17:54;9.00;45.10
15717;DHT22;7960;50.908;4.204;2023-02-08T14:20:27;9.00;45.50
15717;DHT22;7960;50.908;4.204;2023-02-08T14:22:56;9.00;45.70
15717;DHT22;7960;50.908;4.204;2023-02-08T14:25:26;9.00;46.40
15717;DHT22;7960;50.908;4.204;2023-02-08T14:27:55;8.90;47.40
15717;DHT22;7960;50.908;4.204;2023-02-08T14:30:26;8.90;48.40
15717;DHT22;7960;50.908;4.204;2023-02-08T14:33:09;9.20;48.50
15717;DHT22;7960;50.908;4.204;2023-02-08T14:35:40;10.60;46.80
15717;DHT22;7960;50.908;4.204;2023-02-08T14:41:40;11.50;44.30
15717;DHT22;7960;50.908;4.204;2023-02-08T14:50:26;9.90;45.70
15717;DHT22;7960;50.908;4.204;2023-02-08T14:53:00;9.50;47.70
15717;DHT22;7960;50.908;4.204;2023-02-08T14:55:31;9.30;48.20
15717;DHT22;7960;50.908;4.204;2023-02-08T14:58:04;9.00;48.50
15717;DHT22;7960;50.908;4.204;2023-02-08T15:00:35;8.80;49.70
15717;DHT22;7960;50.908;4.204;2023-02-08T15:03:09;8.80;50.20
15717;DHT22;7960;50.908;4.204;2023-02-08T15:05:45;8.70;51.60
15717;DHT22;7960;50.908;4.204;2023-02-08T15:08:19;8.60;53.00
15717;DHT22;7960;50.908;4.204;2023-02-08T15:10:46;8.50;54.90
15717;DHT22;7960;50.908;4.204;2023-02-08T15:13:18;8.40;56.10
15717;DHT22;7960;50.908;4.204;2023-02-08T15:15:50;8.30;56.00
15717;DHT22;7960;50.908;4.204;2023-02-08T15:18:21;8.30;55.40
15717;DHT22;7960;50.908;4.204;2023-02-08T15:20:58;8.20;55.90
15717;DHT22;7960;50.908;4.204;2023-02-08T15:23:27;8.10;55.80
15717;DHT22;7960;50.908;4.204;2023-02-08T15:25:57;8.20;56.50
15717;DHT22;7960;50.908;4.204;2023-02-08T15:28:27;8.10;55.80
15717;DHT22;7960;50.908;4.204;2023-02-08T15:30:56;8.10;56.20
15717;DHT22;7960;50.908;4.204;2023-02-08T15:33:25;8.00;57.00
15717;DHT22;7960;50.908;4.204;2023-02-08T15:35:57;7.90;57.90
15717;DHT22;7960;50.908;4.204;2023-02-08T15:38:25;7.90;58.70
15717;DHT22;7960;50.908;4.204;2023-02-08T15:41:00;7.90;59.30
15717;DHT22;7960;50.908;4.204;2023-02-08T15:43:27;7.90;59.60
15717;DHT22;7960;50.908;4.204;2023-02-08T15:45:58;7.80;60.00
15717;DHT22;7960;50.908;4.204;2023-02-08T15:48:27;7.80;60.10
15717;DHT22;7960;50.908;4.204;2023-02-08T15:50:55;7.70;60.20
15717;DHT22;7960;50.908;4.204;2023-02-08T15:53:22;7.70;60.40
15717;DHT22;7960;50.908;4.204;2023-02-08T15:55:52;7.60;60.60
15717;DHT22;7960;50.908;4.204;2023-02-08T15:58:26;7.50;61.10
15717;DHT22;7960;50.908;4.204;2023-02-08T16:00:56;7.40;61.90
15717;DHT22;7960;50.908;4.204;2023-02-08T16:03:26;7.40;62.90
15717;DHT22;7960;50.908;4.204;2023-02-08T16:05:55;7.30;63.50
15717;DHT22;7960;50.908;4.204;2023-02-08T16:08:25;7.30;64.40
15717;DHT22;7960;50.908;4.204;2023-02-08T16:10:54;7.20;64.50
15717;DHT22;7960;50.908;4.204;2023-02-08T16:13:26;7.10;64.70
15717;DHT22;7960;50.908;4.204;2023-02-08T16:15:56;7.10;65.00
15717;DHT22;7960;50.908;4.204;2023-02-08T16:18:48;7.10;65.10
15717;DHT22;7960;50.908;4.204;2023-02-08T16:21:30;6.90;64.90
15717;DHT22;7960;50.908;4.204;2023-02-08T16:24:02;6.90;65.30
15717;DHT22;7960;50.908;4.204;2023-02-08T16:26:32;6.90;65.50
15717;DHT22;7960;50.908;4.204;2023-02-08T16:29:01;7.00;65.70
15717;DHT22;7960;50.908;4.204;2023-02-08T16:31:30;6.90;65.80
15717;DHT22;7960;50.908;4.204;2023-02-08T16:34:03;6.70;65.70
15717;DHT22;7960;50.908;4.204;2023-02-08T16:36:39;6.80;66.20
15717;DHT22;7960;50.908;4.204;2023-02-08T16:39:34;6.80;65.90
15717;DHT22;7960;50.908;4.204;2023-02-08T16:42:03;6.70;65.10
15717;DHT22;7960;50.908;4.204;2023-02-08T16:44:32;6.80;65.40
15717;DHT22;7960;50.908;4.204;2023-02-08T16:46:59;6.70;65.20
15717;DHT22;7960;50.908;4.204;2023-02-08T16:49:28;6.60;65.40